sensor_id;sensor_type;location;lat;lon;timestamp;pressure;altitude;pressure_sealevel;temperature;humidity
75627;BME280;67372;49.404;11.034;2024-01-11T00:02:01;99212.59;;;-5.42;72.14
75627;BME280;67372;49.404;11.034;2024-01-11T00:04:27;99207.72;;;-5.48;73.57
75627;BME280;67372;49.404;11.034;2024-01-11T00:06:54;99211.63;;;-5.56;74.03
75627;BME280;67372;49.404;11.034;2024-01-11T00:09:20;99209.31;;;-5.60;72.80
75627;BME280;67372;49.404;11.034;2024-01-11T00:11:47;99217.94;;;-5.60;73.82
75627;BME280;67372;49.404;11.034;2024-01-11T00:14:13;99225.81;;;-5.61;73.99
75627;BME280;67372;49.404;11.034;2024-01-11T00:16:41;99227.25;;;-5.71;75.48
75627;BME280;67372;49.404;11.034;2024-01-11T00:19:08;99220.56;;;-5.75;73.93
75627;BME280;67372;49.404;11.034;2024-01-11T00:21:34;99219.09;;;-5.79;75.24
75627;BME280;67372;49.404;11.034;2024-01-11T00:24:04;99224.94;;;-5.76;74.25
75627;BME280;67372;49.404;11.034;2024-01-11T00:26:30;99227.25;;;-5.71;74.33
75627;BME280;67372;49.404;11.034;2024-01-11T00:28:57;99223.81;;;-5.72;73.48
75627;BME280;67372;49.404;11.034;2024-01-11T00:31:23;99225.69;;;-5.74;73.20
75627;BME280;67372;49.404;11.034;2024-01-11T00:33:50;99233.38;;;-5.72;73.74
75627;BME280;67372;49.404;11.034;2024-01-11T00:36:19;99234.41;;;-5.75;73.54
75627;BME280;67372;49.404;11.034;2024-01-11T00:38:46;99227.44;;;-5.74;72.65
75627;BME280;67372;49.404;11.034;2024-01-11T00:41:12;99223.91;;;-5.73;73.47
75627;BME280;67372;49.404;11.034;2024-01-11T00:43:38;99233.56;;;-5.75;72.95
75627;BME280;67372;49.404;11.034;2024-01-11T00:46:05;99231.91;;;-5.76;73.53
75627;BME280;67372;49.404;11.034;2024-01-11T00:48:32;99229.19;;;-5.75;72.86
75627;BME280;67372;49.404;11.034;2024-01-11T00:50:58;99228.28;;;-5.74;72.29
75627;BME280;67372;49.404;11.034;2024-01-11T00:53:24;99231.81;;;-5.75;72.87
75627;BME280;67372;49.404;11.034;2024-01-11T00:55:51;99234.75;;;-5.81;73.95
75627;BME280;67372;49.404;11.034;2024-01-11T00:58:17;99227.16;;;-5.84;72.93
75627;BME280;67372;49.404;11.034;2024-01-11T01:00:44;99224.63;;;-5.85;72.77
75627;BME280;67372;49.404;11.034;2024-01-11T01:03:10;99238.66;;;-5.88;73.14
75627;BME280;67372;49.404;11.034;2024-01-11T01:05:36;99237.16;;;-5.92;73.42
75627;BME280;67372;49.404;11.034;2024-01-11T01:08:03;99238.34;;;-5.98;73.61
75627;BME280;67372;49.404;11.034;2024-01-11T01:10:29;99237.94;;;-6.06;73.26
75627;BME280;67372;49.404;11.034;2024-01-11T01:12:56;99234.44;;;-6.05;73.44
75627;BME280;67372;49.404;11.034;2024-01-11T01:15:22;99235.25;;;-6.04;73.95
75627;BME280;67372;49.404;11.034;2024-01-11T01:17:49;99237.69;;;-6.01;73.47
75627;BME280;67372;49.404;11.034;2024-01-11T01:20:15;99234.25;;;-6.02;73.74
75627;BME280;67372;49.404;11.034;2024-01-11T01:22:42;99228.50;;;-6.07;74.28
75627;BME280;67372;49.404;11.034;2024-01-11T01:25:08;99234.97;;;-6.14;74.51
75627;BME280;67372;49.404;11.034;2024-01-11T01:27:35;99239.38;;;-6.16;74.28
75627;BME280;67372;49.404;11.034;2024-01-11T01:30:01;99238.47;;;-6.15;73.88
75627;BME280;67372;49.404;11.034;2024-01-11T01:32:28;99232.59;;;-6.19;75.01
75627;BME280;67372;49.404;11.034;2024-01-11T01:34:54;99226.91;;;-6.25;75.41
75627;BME280;67372;49.404;11.034;2024-01-11T01:37:20;99242.31;;;-6.22;74.96
75627;BME280;67372;49.404;11.034;2024-01-11T01:39:47;99244.06;;;-6.23;75.41
75627;BME280;67372;49.404;11.034;2024-01-11T01:42:13;99248.69;;;-6.28;75.10
75627;BME280;67372;49.404;11.034;2024-01-11T01:44:40;99249.88;;;-6.33;75.44
75627;BME280;67372;49.404;11.034;2024-01-11T01:47:07;99250.03;;;-6.36;74.95
75627;BME280;67372;49.404;11.034;2024-01-11T01:49:35;99245.69;;;-6.36;75.34
75627;BME280;67372;49.404;11.034;2024-01-11T01:52:02;99247.03;;;-6.29;74.13
75627;BME280;67372;49.404;11.034;2024-01-11T01:54:31;99242.50;;;-6.25;74.07
75627;BME280;67372;49.404;11.034;2024-01-11T01:56:59;99246.66;;;-6.23;74.13
75627;BME280;67372;49.404;11.034;2024-01-11T01:59:27;99233.88;;;-6.26;73.48
75627;BME280;67372;49.404;11.034;2024-01-11T02:01:55;99234.78;;;-6.27;74.25
75627;BME280;67372;49.404;11.034;2024-01-11T02:04:21;99233.22;;;-6.29;73.91
75627;BME280;67372;49.404;11.034;2024-01-11T02:06:50;99241.91;;;-6.30;74.22
75627;BME280;67372;49.404;11.034;2024-01-11T02:09:17;99243.94;;;-6.35;74.57
75627;BME280;67372;49.404;11.034;2024-01-11T02:11:44;99244.16;;;-6.40;74.57
75627;BME280;67372;49.404;11.034;2024-01-11T02:14:11;99244.25;;;-6.41;74.43
75627;BME280;67372;49.404;11.034;2024-01-11T02:16:37;99245.16;;;-6.42;75.02
75627;BME280;67372;49.404;11.034;2024-01-11T02:19:12;99246.25;;;-6.46;74.97
75627;BME280;67372;49.404;11.034;2024-01-11T02:21:42;99238.56;;;-6.48;74.84
75627;BME280;67372;49.404;11.034;2024-01-11T02:24:09;99239.31;;;-6.46;74.51
75627;BME280;67372;49.404;11.034;2024-01-11T02:26:36;99242.66;;;-6.44;74.34
75627;BME280;67372;49.404;11.034;2024-01-11T02:29:03;99237.31;;;-6.41;73.53
75627;BME280;67372;49.404;11.034;2024-01-11T02:31:30;99243.19;;;-6.37;73.98
75627;BME280;67372;49.404;11.034;2024-01-11T02:33:56;99235.22;;;-6.34;73.67
75627;BME280;67372;49.404;11.034;2024-01-11T02:36:25;99228.28;;;-6.34;74.13
75627;BME280;67372;49.404;11.034;2024-01-11T02:38:51;99223.09;;;-6.34;74.29
75627;BME280;67372;49.404;11.034;2024-01-11T02:41:20;99220.59;;;-6.35;73.91
75627;BME280;67372;49.404;11.034;2024-01-11T02:43:47;99226.59;;;-6.35;72.78
75627;BME280;67372;49.404;11.034;2024-01-11T02:46:15;99224.94;;;-6.36;74.08
75627;BME280;67372;49.404;11.034;2024-01-11T02:48:41;99222.34;;;-6.36;73.82
75627;BME280;67372;49.404;11.034;2024-01-11T02:51:08;99227.75;;;-6.40;74.30
75627;BME280;67372;49.404;11.034;2024-01-11T02:53:34;99234.13;;;-6.46;74.48
75627;BME280;67372;49.404;11.034;2024-01-11T02:56:01;99227.53;;;-6.52;74.54
75627;BME280;67372;49.404;11.034;2024-01-11T02:58:29;99231.28;;;-6.57;74.19
75627;BME280;67372;49.404;11.034;2024-01-11T03:00:55;99232.22;;;-6.58;73.76
75627;BME280;67372;49.404;11.034;2024-01-11T03:03:21;99216.75;;;-6.60;74.26
75627;BME280;67372;49.404;11.034;2024-01-11T03:05:48;99227.19;;;-6.61;73.92
75627;BME280;67372;49.404;11.034;2024-01-11T03:08:15;99214.28;;;-6.63;74.17
75627;BME280;67372;49.404;11.034;2024-01-11T03:10:41;99221.19;;;-6.62;74.23
75627;BME280;67372;49.404;11.034;2024-01-11T03:13:07;99224.59;;;-6.61;74.64
75627;BME280;67372;49.404;11.034;2024-01-11T03:15:34;99219.72;;;-6.67;75.25
75627;BME280;67372;49.404;11.034;2024-01-11T03:18:00;99221.91;;;-6.75;74.09
75627;BME280;67372;49.404;11.034;2024-01-11T03:20:27;99215.38;;;-6.83;75.09
75627;BME280;67372;49.404;11.034;2024-01-11T03:22:53;99231.13;;;-6.86;75.95
75627;BME280;67372;49.404;11.034;2024-01-11T03:25:20;99226.16;;;-6.90;75.83
75627;BME280;67372;49.404;11.034;2024-01-11T03:27:46;99221.47;;;-6.99;76.60
75627;BME280;67372;49.404;11.034;2024-01-11T03:30:13;99219.88;;;-7.02;75.31
75627;BME280;67372;49.404;11.034;2024-01-11T03:32:39;99218.78;;;-6.98;76.91
75627;BME280;67372;49.404;11.034;2024-01-11T03:35:07;99215.69;;;-7.04;77.69
75627;BME280;67372;49.404;11.034;2024-01-11T03:37:34;99212.66;;;-7.13;76.17
75627;BME280;67372;49.404;11.034;2024-01-11T03:40:02;99211.66;;;-7.10;76.42
75627;BME280;67372;49.404;11.034;2024-01-11T03:42:29;99206.47;;;-7.10;76.75
75627;BME280;67372;49.404;11.034;2024-01-11T03:44:55;99202.16;;;-7.09;75.49
75627;BME280;67372;49.404;11.034;2024-01-11T03:47:22;99207.06;;;-7.05;75.66
75627;BME280;67372;49.404;11.034;2024-01-11T03:49:49;99206.00;;;-7.01;75.80
75627;BME280;67372;49.404;11.034;2024-01-11T03:52:15;99199.81;;;-6.98;74.75
75627;BME280;67372;49.404;11.034;2024-01-11T03:54:41;99199.97;;;-7.01;75.55
75627;BME280;67372;49.404;11.034;2024-01-11T03:57:08;99200.81;;;-7.01;75.21
75627;BME280;67372;49.404;11.034;2024-01-11T03:59:34;99202.56;;;-7.01;74.28
75627;BME280;67372;49.404;11.034;2024-01-11T04:02:01;99198.88;;;-6.97;74.70
75627;BME280;67372;49.404;11.034;2024-01-11T04:04:27;99204.75;;;-6.94;74.38
75627;BME280;67372;49.404;11.034;2024-01-11T04:06:53;99201.13;;;-6.91;74.49
75627;BME280;67372;49.404;11.034;2024-01-11T04:09:20;99195.69;;;-6.87;74.28
75627;BME280;67372;49.404;11.034;2024-01-11T04:11:46;99199.38;;;-6.91;74.21
75627;BME280;67372;49.404;11.034;2024-01-11T04:14:13;99203.16;;;-6.96;74.92
75627;BME280;67372;49.404;11.034;2024-01-11T04:16:40;99201.72;;;-7.02;74.40
75627;BME280;67372;49.404;11.034;2024-01-11T04:19:07;99203.41;;;-7.01;74.84
75627;BME280;67372;49.404;11.034;2024-01-11T04:21:33;99211.34;;;-7.04;75.01
75627;BME280;67372;49.404;11.034;2024-01-11T04:23:59;99207.16;;;-7.06;74.97
75627;BME280;67372;49.404;11.034;2024-01-11T04:26:26;99214.25;;;-7.10;75.14
75627;BME280;67372;49.404;11.034;2024-01-11T04:28:53;99214.56;;;-7.16;75.19
75627;BME280;67372;49.404;11.034;2024-01-11T04:31:23;99222.66;;;-7.22;76.37
75627;BME280;67372;49.404;11.034;2024-01-11T04:33:49;99232.34;;;-7.26;75.59
75627;BME280;67372;49.404;11.034;2024-01-11T04:36:16;99226.50;;;-7.29;75.80
75627;BME280;67372;49.404;11.034;2024-01-11T04:38:42;99228.09;;;-7.27;75.50
75627;BME280;67372;49.404;11.034;2024-01-11T04:41:09;99215.72;;;-7.22;75.67
75627;BME280;67372;49.404;11.034;2024-01-11T04:43:40;99224.19;;;-7.18;74.38
75627;BME280;67372;49.404;11.034;2024-01-11T04:46:19;99219.75;;;-7.16;75.01
75627;BME280;67372;49.404;11.034;2024-01-11T04:48:46;99224.94;;;-7.16;75.17
75627;BME280;67372;49.404;11.034;2024-01-11T04:51:13;99238.22;;;-7.22;75.42
75627;BME280;67372;49.404;11.034;2024-01-11T04:53:40;99237.63;;;-7.27;75.23
75627;BME280;67372;49.404;11.034;2024-01-11T04:56:08;99235.41;;;-7.35;75.95
75627;BME280;67372;49.404;11.034;2024-01-11T04:58:36;99239.00;;;-7.37;75.70
75627;BME280;67372;49.404;11.034;2024-01-11T05:01:02;99241.59;;;-7.37;75.56
75627;BME280;67372;49.404;11.034;2024-01-11T05:03:29;99241.59;;;-7.37;75.33
75627;BME280;67372;49.404;11.034;2024-01-11T05:05:56;99236.41;;;-7.37;75.06
75627;BME280;67372;49.404;11.034;2024-01-11T05:08:22;99242.22;;;-7.32;75.27
75627;BME280;67372;49.404;11.034;2024-01-11T05:10:49;99246.31;;;-7.28;75.01
75627;BME280;67372;49.404;11.034;2024-01-11T05:13:17;99248.75;;;-7.25;74.41
75627;BME280;67372;49.404;11.034;2024-01-11T05:15:43;99250.34;;;-7.23;74.40
75627;BME280;67372;49.404;11.034;2024-01-11T05:18:10;99243.56;;;-7.25;74.67
75627;BME280;67372;49.404;11.034;2024-01-11T05:20:37;99236.78;;;-7.28;74.87
75627;BME280;67372;49.404;11.034;2024-01-11T05:23:03;99229.94;;;-7.29;74.46
75627;BME280;67372;49.404;11.034;2024-01-11T05:25:30;99241.88;;;-7.26;74.42
75627;BME280;67372;49.404;11.034;2024-01-11T05:27:57;99242.66;;;-7.24;74.74
75627;BME280;67372;49.404;11.034;2024-01-11T05:30:24;99235.13;;;-7.29;74.66
75627;BME280;67372;49.404;11.034;2024-01-11T05:32:55;99232.44;;;-7.27;75.43
75627;BME280;67372;49.404;11.034;2024-01-11T05:35:22;99236.72;;;-7.26;74.04
75627;BME280;67372;49.404;11.034;2024-01-11T05:37:49;99237.53;;;-7.26;75.01
75627;BME280;67372;49.404;11.034;2024-01-11T05:40:16;99241.06;;;-7.27;74.36
75627;BME280;67372;49.404;11.034;2024-01-11T05:42:42;99240.88;;;-7.24;74.90
75627;BME280;67372;49.404;11.034;2024-01-11T05:45:09;99249.50;;;-7.23;74.54
75627;BME280;67372;49.404;11.034;2024-01-11T05:47:35;99248.75;;;-7.25;74.50
75627;BME280;67372;49.404;11.034;2024-01-11T05:50:02;99249.66;;;-7.26;74.31
75627;BME280;67372;49.404;11.034;2024-01-11T05:52:28;99250.59;;;-7.27;74.02
75627;BME280;67372;49.404;11.034;2024-01-11T05:54:55;99251.41;;;-7.27;74.70
75627;BME280;67372;49.404;11.034;2024-01-11T05:57:21;99252.19;;;-7.25;73.81
75627;BME280;67372;49.404;11.034;2024-01-11T05:59:48;99256.59;;;-7.27;74.43
75627;BME280;67372;49.404;11.034;2024-01-11T06:02:14;99250.59;;;-7.27;73.78
75627;BME280;67372;49.404;11.034;2024-01-11T06:04:41;99250.59;;;-7.27;74.11
75627;BME280;67372;49.404;11.034;2024-01-11T06:07:07;99258.19;;;-7.24;74.32
75627;BME280;67372;49.404;11.034;2024-01-11T06:09:33;99253.78;;;-7.22;73.68
75627;BME280;67372;49.404;11.034;2024-01-11T06:12:00;99250.19;;;-7.20;73.97
75627;BME280;67372;49.404;11.034;2024-01-11T06:14:26;99245.00;;;-7.20;73.31
75627;BME280;67372;49.404;11.034;2024-01-11T06:16:52;99249.34;;;-7.20;73.60
75627;BME280;67372;49.404;11.034;2024-01-11T06:19:19;99251.09;;;-7.21;74.08
75627;BME280;67372;49.404;11.034;2024-01-11T06:21:45;99255.44;;;-7.21;73.77
75627;BME280;67372;49.404;11.034;2024-01-11T06:24:12;99257.28;;;-7.23;73.40
75627;BME280;67372;49.404;11.034;2024-01-11T06:26:38;99255.84;;;-7.29;74.02
75627;BME280;67372;49.404;11.034;2024-01-11T06:29:05;99259.66;;;-7.36;73.24
75627;BME280;67372;49.404;11.034;2024-01-11T06:31:32;99255.78;;;-7.45;73.85
75627;BME280;67372;49.404;11.034;2024-01-11T06:33:58;99255.94;;;-7.48;74.32
75627;BME280;67372;49.404;11.034;2024-01-11T06:36:25;99260.34;;;-7.50;74.31
75627;BME280;67372;49.404;11.034;2024-01-11T06:38:51;99262.28;;;-7.53;74.13
75627;BME280;67372;49.404;11.034;2024-01-11T06:41:18;99277.34;;;-7.61;74.82
75627;BME280;67372;49.404;11.034;2024-01-11T06:43:44;99284.56;;;-7.68;75.00
75627;BME280;67372;49.404;11.034;2024-01-11T06:46:11;99280.22;;;-7.67;74.88
75627;BME280;67372;49.404;11.034;2024-01-11T06:48:37;99298.44;;;-7.69;75.49
75627;BME280;67372;49.404;11.034;2024-01-11T06:51:05;99308.34;;;-7.77;78.07
75627;BME280;67372;49.404;11.034;2024-01-11T06:53:31;99308.84;;;-7.88;79.40
75627;BME280;67372;49.404;11.034;2024-01-11T06:55:58;99308.31;;;-7.94;78.31
75627;BME280;67372;49.404;11.034;2024-01-11T06:58:24;99309.06;;;-7.92;78.95
75627;BME280;67372;49.404;11.034;2024-01-11T07:00:51;99316.69;;;-7.89;78.78
75627;BME280;67372;49.404;11.034;2024-01-11T07:03:21;99311.34;;;-7.86;77.31
75627;BME280;67372;49.404;11.034;2024-01-11T07:05:47;99313.78;;;-7.83;77.87
75627;BME280;67372;49.404;11.034;2024-01-11T07:08:14;99316.59;;;-7.88;77.71
75627;BME280;67372;49.404;11.034;2024-01-11T07:10:40;99315.00;;;-7.90;77.82
75627;BME280;67372;49.404;11.034;2024-01-11T07:13:08;99320.25;;;-7.92;77.26
75627;BME280;67372;49.404;11.034;2024-01-11T07:15:34;99313.19;;;-7.88;76.44
75627;BME280;67372;49.404;11.034;2024-01-11T07:18:01;99305.25;;;-7.85;76.68
75627;BME280;67372;49.404;11.034;2024-01-11T07:20:28;99301.41;;;-7.77;76.68
75627;BME280;67372;49.404;11.034;2024-01-11T07:22:54;99289.16;;;-7.73;76.29
75627;BME280;67372;49.404;11.034;2024-01-11T07:25:21;99308.66;;;-7.66;76.38
75627;BME280;67372;49.404;11.034;2024-01-11T07:27:47;99315.09;;;-7.57;75.99
75627;BME280;67372;49.404;11.034;2024-01-11T07:30:14;99318.09;;;-7.48;75.48
75627;BME280;67372;49.404;11.034;2024-01-11T07:32:40;99327.16;;;-7.39;76.11
75627;BME280;67372;49.404;11.034;2024-01-11T07:35:07;99322.53;;;-7.32;75.65
75627;BME280;67372;49.404;11.034;2024-01-11T07:37:40;99334.25;;;-7.25;75.81
75627;BME280;67372;49.404;11.034;2024-01-11T07:40:08;99325.41;;;-7.21;75.69
75627;BME280;67372;49.404;11.034;2024-01-11T07:42:35;99324.19;;;-7.14;75.45
75627;BME280;67372;49.404;11.034;2024-01-11T07:45:01;99342.78;;;-7.06;75.50
75627;BME280;67372;49.404;11.034;2024-01-11T07:47:27;99347.56;;;-6.98;74.60
75627;BME280;67372;49.404;11.034;2024-01-11T07:49:54;99341.47;;;-6.97;74.33
75627;BME280;67372;49.404;11.034;2024-01-11T07:52:21;99351.44;;;-6.90;75.27
75627;BME280;67372;49.404;11.034;2024-01-11T07:54:49;99353.00;;;-6.86;75.29
75627;BME280;67372;49.404;11.034;2024-01-11T07:57:15;99356.47;;;-6.87;75.85
75627;BME280;67372;49.404;11.034;2024-01-11T07:59:42;99353.00;;;-6.86;76.54
75627;BME280;67372;49.404;11.034;2024-01-11T08:02:08;99345.06;;;-6.83;76.51
75627;BME280;67372;49.404;11.034;2024-01-11T08:04:34;99357.09;;;-6.82;75.91
75627;BME280;67372;49.404;11.034;2024-01-11T08:07:01;99355.19;;;-6.78;76.23
75627;BME280;67372;49.404;11.034;2024-01-11T08:09:28;99358.28;;;-6.71;76.22
75627;BME280;67372;49.404;11.034;2024-01-11T08:11:54;99371.25;;;-6.71;78.24
75627;BME280;67372;49.404;11.034;2024-01-11T08:14:23;99364.38;;;-6.72;78.50
75627;BME280;67372;49.404;11.034;2024-01-11T08:16:49;99365.97;;;-6.70;77.80
75627;BME280;67372;49.404;11.034;2024-01-11T08:19:15;99373.97;;;-6.57;76.84
75627;BME280;67372;49.404;11.034;2024-01-11T08:21:42;99368.38;;;-6.50;77.29
75627;BME280;67372;49.404;11.034;2024-01-11T08:24:08;99373.88;;;-6.38;76.98
75627;BME280;67372;49.404;11.034;2024-01-11T08:26:36;99356.94;;;-6.30;76.20
75627;BME280;67372;49.404;11.034;2024-01-11T08:29:02;99362.72;;;-6.25;77.77
75627;BME280;67372;49.404;11.034;2024-01-11T08:31:29;99365.91;;;-6.20;77.62
75627;BME280;67372;49.404;11.034;2024-01-11T08:33:55;99360.31;;;-6.12;77.96
75627;BME280;67372;49.404;11.034;2024-01-11T08:36:22;99352.19;;;-6.06;77.64
75627;BME280;67372;49.404;11.034;2024-01-11T08:38:49;99348.25;;;-5.97;78.15
75627;BME280;67372;49.404;11.034;2024-01-11T08:41:16;99348.47;;;-5.86;77.78
75627;BME280;67372;49.404;11.034;2024-01-11T08:43:43;99345.34;;;-5.77;76.53
75627;BME280;67372;49.404;11.034;2024-01-11T08:46:10;99348.97;;;-5.64;77.49
75627;BME280;67372;49.404;11.034;2024-01-11T08:48:36;99339.72;;;-5.53;77.17
75627;BME280;67372;49.404;11.034;2024-01-11T08:51:03;99335.59;;;-5.42;76.31
75627;BME280;67372;49.404;11.034;2024-01-11T08:53:31;99334.78;;;-5.28;76.60
75627;BME280;67372;49.404;11.034;2024-01-11T08:55:59;99333.06;;;-5.13;76.32
75627;BME280;67372;49.404;11.034;2024-01-11T08:58:26;99332.31;;;-5.01;75.73
75627;BME280;67372;49.404;11.034;2024-01-11T09:00:52;99329.94;;;-4.90;76.07
75627;BME280;67372;49.404;11.034;2024-01-11T09:03:18;99318.13;;;-4.81;75.89
75627;BME280;67372;49.404;11.034;2024-01-11T09:05:45;99308.19;;;-4.75;75.76
75627;BME280;67372;49.404;11.034;2024-01-11T09:08:13;99298.25;;;-4.68;75.63
75627;BME280;67372;49.404;11.034;2024-01-11T09:10:40;99290.81;;;-4.60;75.65
75627;BME280;67372;49.404;11.034;2024-01-11T09:13:07;99286.06;;;-4.53;75.63
75627;BME280;67372;49.404;11.034;2024-01-11T09:15:35;99293.22;;;-4.43;75.10
75627;BME280;67372;49.404;11.034;2024-01-11T09:18:01;99305.56;;;-4.32;75.07
75627;BME280;67372;49.404;11.034;2024-01-11T09:20:28;99301.47;;;-4.22;75.02
75627;BME280;67372;49.404;11.034;2024-01-11T09:22:55;99307.47;;;-4.07;75.00
75627;BME280;67372;49.404;11.034;2024-01-11T09:25:21;99316.38;;;-3.97;74.07
75627;BME280;67372;49.404;11.034;2024-01-11T09:27:48;99339.28;;;-4.02;74.39
75627;BME280;67372;49.404;11.034;2024-01-11T09:30:14;99321.28;;;-3.92;74.52
75627;BME280;67372;49.404;11.034;2024-01-11T09:32:41;99318.41;;;-3.88;74.05
75627;BME280;67372;49.404;11.034;2024-01-11T09:35:07;99312.97;;;-3.85;73.92
75627;BME280;67372;49.404;11.034;2024-01-11T09:37:36;99312.78;;;-3.82;73.96
75627;BME280;67372;49.404;11.034;2024-01-11T09:40:03;99320.22;;;-3.76;74.27
75627;BME280;67372;49.404;11.034;2024-01-11T09:42:30;99336.00;;;-3.64;73.53
75627;BME280;67372;49.404;11.034;2024-01-11T09:44:58;99349.13;;;-3.66;72.88
75627;BME280;67372;49.404;11.034;2024-01-11T09:47:24;99355.19;;;-3.65;73.05
75627;BME280;67372;49.404;11.034;2024-01-11T09:49:53;99355.72;;;-3.60;73.00
75627;BME280;67372;49.404;11.034;2024-01-11T09:52:22;99359.06;;;-3.58;73.15
75627;BME280;67372;49.404;11.034;2024-01-11T09:54:48;99353.66;;;-3.55;72.34
75627;BME280;67372;49.404;11.034;2024-01-11T09:57:16;99351.25;;;-3.58;72.61
75627;BME280;67372;49.404;11.034;2024-01-11T09:59:49;99324.78;;;-3.52;72.36
75627;BME280;67372;49.404;11.034;2024-01-11T10:02:18;99316.25;;;-3.42;72.07
75627;BME280;67372;49.404;11.034;2024-01-11T10:04:44;99305.53;;;-3.37;71.60
75627;BME280;67372;49.404;11.034;2024-01-11T10:07:12;99311.78;;;-3.40;71.58
75627;BME280;67372;49.404;11.034;2024-01-11T10:09:39;99312.50;;;-3.37;72.29
75627;BME280;67372;49.404;11.034;2024-01-11T10:12:05;99314.22;;;-3.24;71.77
75627;BME280;67372;49.404;11.034;2024-01-11T10:14:32;99320.28;;;-3.23;71.50
75627;BME280;67372;49.404;11.034;2024-01-11T10:16:58;99325.38;;;-3.22;71.74
75627;BME280;67372;49.404;11.034;2024-01-11T10:19:25;99327.25;;;-3.24;71.57
75627;BME280;67372;49.404;11.034;2024-01-11T10:21:52;99334.47;;;-3.27;72.25
75627;BME280;67372;49.404;11.034;2024-01-11T10:24:19;99353.03;;;-3.19;72.31
75627;BME280;67372;49.404;11.034;2024-01-11T10:26:46;99353.47;;;-3.13;72.66
75627;BME280;67372;49.404;11.034;2024-01-11T10:29:12;99349.94;;;-2.99;72.16
75627;BME280;67372;49.404;11.034;2024-01-11T10:31:40;99345.88;;;-2.90;71.53
75627;BME280;67372;49.404;11.034;2024-01-11T10:34:06;99346.09;;;-2.81;70.93
75627;BME280;67372;49.404;11.034;2024-01-11T10:36:33;99345.47;;;-2.71;71.33
75627;BME280;67372;49.404;11.034;2024-01-11T10:39:02;99341.38;;;-2.63;70.52
75627;BME280;67372;49.404;11.034;2024-01-11T10:41:32;99333.66;;;-2.64;70.12
75627;BME280;67372;49.404;11.034;2024-01-11T10:44:07;99332.84;;;-2.52;70.02
75627;BME280;67372;49.404;11.034;2024-01-11T10:46:37;99327.91;;;-2.44;69.09
75627;BME280;67372;49.404;11.034;2024-01-11T10:49:04;99327.69;;;-2.41;68.37
75627;BME280;67372;49.404;11.034;2024-01-11T10:51:32;99315.47;;;-2.40;68.24
75627;BME280;67372;49.404;11.034;2024-01-11T10:53:59;99304.28;;;-2.30;68.56
75627;BME280;67372;49.404;11.034;2024-01-11T10:56:28;99304.13;;;-2.16;69.02
75627;BME280;67372;49.404;11.034;2024-01-11T10:58:56;99293.19;;;-1.97;69.10
75627;BME280;67372;49.404;11.034;2024-01-11T11:01:23;99295.19;;;-2.00;66.63
75627;BME280;67372;49.404;11.034;2024-01-11T11:03:52;99299.75;;;-1.91;67.53
75627;BME280;67372;49.404;11.034;2024-01-11T11:06:22;99299.09;;;-1.82;68.35
75627;BME280;67372;49.404;11.034;2024-01-11T11:08:50;99299.03;;;-1.69;66.81
75627;BME280;67372;49.404;11.034;2024-01-11T11:11:17;99297.56;;;-1.61;66.54
75627;BME280;67372;49.404;11.034;2024-01-11T11:13:46;99296.25;;;-1.55;66.95
75627;BME280;67372;49.404;11.034;2024-01-11T11:16:15;99292.53;;;-1.40;67.15
75627;BME280;67372;49.404;11.034;2024-01-11T11:18:42;99283.75;;;-1.28;67.65
75627;BME280;67372;49.404;11.034;2024-01-11T11:21:09;99290.56;;;-1.14;67.05
75627;BME280;67372;49.404;11.034;2024-01-11T11:23:37;99297.25;;;-0.99;67.34
75627;BME280;67372;49.404;11.034;2024-01-11T11:26:06;99281.94;;;-0.81;66.64
75627;BME280;67372;49.404;11.034;2024-01-11T11:28:34;99282.66;;;-0.68;65.09
75627;BME280;67372;49.404;11.034;2024-01-11T11:31:02;99271.72;;;-0.62;65.06
75627;BME280;67372;49.404;11.034;2024-01-11T11:33:29;99277.28;;;-0.55;65.55
75627;BME280;67372;49.404;11.034;2024-01-11T11:35:59;99271.34;;;-0.46;64.34
75627;BME280;67372;49.404;11.034;2024-01-11T11:38:27;99263.00;;;-0.40;65.07
75627;BME280;67372;49.404;11.034;2024-01-11T11:40:56;99260.22;;;-0.27;63.63
75627;BME280;67372;49.404;11.034;2024-01-11T11:43:23;99270.25;;;-0.32;63.04
75627;BME280;67372;49.404;11.034;2024-01-11T11:45:51;99271.34;;;-0.35;63.40
75627;BME280;67372;49.404;11.034;2024-01-11T11:51:11;99262.50;;;-0.22;63.25
75627;BME280;67372;49.404;11.034;2024-01-11T11:53:39;99281.66;;;-0.11;64.37
75627;BME280;67372;49.404;11.034;2024-01-11T11:56:08;99280.47;;;-0.07;61.31
75627;BME280;67372;49.404;11.034;2024-01-11T11:58:35;99275.94;;;-0.05;61.59
75627;BME280;67372;49.404;11.034;2024-01-11T12:01:03;99271.75;;;-0.07;61.03
75627;BME280;67372;49.404;11.034;2024-01-11T12:03:32;99272.47;;;-0.05;60.69
75627;BME280;67372;49.404;11.034;2024-01-11T12:06:00;99271.44;;;-0.14;59.83
75627;BME280;67372;49.404;11.034;2024-01-11T12:08:26;99266.84;;;-0.01;61.70
75627;BME280;67372;49.404;11.034;2024-01-11T12:10:53;99269.00;;;-0.06;59.83
75627;BME280;67372;49.404;11.034;2024-01-11T12:13:20;99259.34;;;-0.05;60.79
75627;BME280;67372;49.404;11.034;2024-01-11T12:15:46;99263.19;;;0.02;59.54
75627;BME280;67372;49.404;11.034;2024-01-11T12:18:13;99256.38;;;-0.01;58.89
75627;BME280;67372;49.404;11.034;2024-01-11T12:20:40;99249.94;;;0.04;59.78
75627;BME280;67372;49.404;11.034;2024-01-11T12:23:07;99254.94;;;0.07;60.48
75627;BME280;67372;49.404;11.034;2024-01-11T12:25:34;99244.31;;;0.08;60.29
75627;BME280;67372;49.404;11.034;2024-01-11T12:28:01;99232.75;;;0.11;60.00
75627;BME280;67372;49.404;11.034;2024-01-11T12:30:29;99232.38;;;0.15;60.94
75627;BME280;67372;49.404;11.034;2024-01-11T12:32:56;99233.75;;;0.30;60.83
75627;BME280;67372;49.404;11.034;2024-01-11T12:35:23;99238.09;;;0.41;59.96
75627;BME280;67372;49.404;11.034;2024-01-11T12:37:58;99239.88;;;0.41;59.33
75627;BME280;67372;49.404;11.034;2024-01-11T12:40:25;99233.91;;;0.18;58.37
75627;BME280;67372;49.404;11.034;2024-01-11T12:42:52;99237.47;;;0.17;59.01
75627;BME280;67372;49.404;11.034;2024-01-11T12:45:22;99232.88;;;0.09;59.18
75627;BME280;67372;49.404;11.034;2024-01-11T12:47:49;99230.81;;;0.13;59.10
75627;BME280;67372;49.404;11.034;2024-01-11T12:50:17;99223.28;;;0.19;59.15
75627;BME280;67372;49.404;11.034;2024-01-11T12:52:44;99220.06;;;0.27;59.37